sensor_id;sensor_type;location;lat;lon;timestamp;temperature;humidity
25328;DHT22;13279;51.300;12.394;2024-03-29T00:00:51;7.30;99.90
25328;DHT22;13279;51.300;12.394;2024-03-29T00:03:17;7.30;99.90
25328;DHT22;13279;51.300;12.394;2024-03-29T00:05:43;7.30;99.90
25328;DHT22;13279;51.300;12.394;2024-03-29T00:08:10;7.30;99.90
25328;DHT22;13279;51.300;12.394;2024-03-29T00:10:37;7.20;99.90
25328;DHT22;13279;51.300;12.394;2024-03-29T00:13:05;7.30;99.90
25328;DHT22;13279;51.300;12.394;2024-03-29T00:15:32;7.20;99.90
25328;DHT22;13279;51.300;12.394;2024-03-29T00:17:58;7.20;99.90
25328;DHT22;13279;51.300;12.394;2024-03-29T00:20:25;7.20;99.90
25328;DHT22;13279;51.300;12.394;2024-03-29T00:22:51;7.20;99.90
25328;DHT22;13279;51.300;12.394;2024-03-29T00:25:18;7.20;99.90
25328;DHT22;13279;51.300;12.394;2024-03-29T00:27:44;7.20;99.90
25328;DHT22;13279;51.300;12.394;2024-03-29T00:30:12;7.20;99.90
25328;DHT22;13279;51.300;12.394;2024-03-29T00:32:38;7.20;99.90
25328;DHT22;13279;51.300;12.394;2024-03-29T00:35:06;7.10;99.90
25328;DHT22;13279;51.300;12.394;2024-03-29T00:37:32;7.10;99.90
25328;DHT22;13279;51.300;12.394;2024-03-29T00:39:58;7.10;99.90
25328;DHT22;13279;51.300;12.394;2024-03-29T00:42:25;7.10;99.90
25328;DHT22;13279;51.300;12.394;2024-03-29T00:44:51;7.10;99.90
25328;DHT22;13279;51.300;12.394;2024-03-29T00:47:19;7.00;99.90
25328;DHT22;13279;51.300;12.394;2024-03-29T00:49:45;7.00;99.90
25328;DHT22;13279;51.300;12.394;2024-03-29T00:52:11;7.00;99.90
25328;DHT22;13279;51.300;12.394;2024-03-29T00:54:38;6.90;99.90
25328;DHT22;13279;51.300;12.394;2024-03-29T00:57:04;6.90;99.90
25328;DHT22;13279;51.300;12.394;2024-03-29T00:59:31;6.80;99.90
25328;DHT22;13279;51.300;12.394;2024-03-29T01:01:57;6.80;99.90
25328;DHT22;13279;51.300;12.394;2024-03-29T01:04:24;6.90;99.90
25328;DHT22;13279;51.300;12.394;2024-03-29T01:06:50;6.90;99.90
25328;DHT22;13279;51.300;12.394;2024-03-29T01:09:17;6.90;99.90
25328;DHT22;13279;51.300;12.394;2024-03-29T01:11:43;6.90;99.90
25328;DHT22;13279;51.300;12.394;2024-03-29T01:14:10;6.90;99.90
25328;DHT22;13279;51.300;12.394;2024-03-29T01:16:36;6.90;99.90
25328;DHT22;13279;51.300;12.394;2024-03-29T01:19:02;6.90;99.90
25328;DHT22;13279;51.300;12.394;2024-03-29T01:21:30;6.90;99.90
25328;DHT22;13279;51.300;12.394;2024-03-29T01:23:56;7.00;99.90
25328;DHT22;13279;51.300;12.394;2024-03-29T01:26:22;7.00;99.90
25328;DHT22;13279;51.300;12.394;2024-03-29T01:28:49;6.90;99.90
25328;DHT22;13279;51.300;12.394;2024-03-29T01:31:15;6.90;99.90
25328;DHT22;13279;51.300;12.394;2024-03-29T01:33:42;6.90;99.90
25328;DHT22;13279;51.300;12.394;2024-03-29T01:36:08;6.80;99.90
25328;DHT22;13279;51.300;12.394;2024-03-29T01:38:36;6.80;99.90
25328;DHT22;13279;51.300;12.394;2024-03-29T01:41:02;6.70;99.90
25328;DHT22;13279;51.300;12.394;2024-03-29T01:43:29;6.70;99.90
25328;DHT22;13279;51.300;12.394;2024-03-29T01:45:57;6.70;99.90
25328;DHT22;13279;51.300;12.394;2024-03-29T01:48:26;6.70;99.90
25328;DHT22;13279;51.300;12.394;2024-03-29T01:50:56;6.60;99.90
25328;DHT22;13279;51.300;12.394;2024-03-29T01:53:25;6.60;99.90
25328;DHT22;13279;51.300;12.394;2024-03-29T01:55:54;6.60;99.90
25328;DHT22;13279;51.300;12.394;2024-03-29T01:58:23;6.60;99.90
25328;DHT22;13279;51.300;12.394;2024-03-29T02:00:53;6.60;99.90
25328;DHT22;13279;51.300;12.394;2024-03-29T02:03:21;6.60;99.90
25328;DHT22;13279;51.300;12.394;2024-03-29T02:05:49;6.60;99.90
25328;DHT22;13279;51.300;12.394;2024-03-29T02:08:17;6.60;99.90
25328;DHT22;13279;51.300;12.394;2024-03-29T02:10:46;6.50;99.90
25328;DHT22;13279;51.300;12.394;2024-03-29T02:13:15;6.50;99.90
25328;DHT22;13279;51.300;12.394;2024-03-29T02:15:42;6.50;99.90
25328;DHT22;13279;51.300;12.394;2024-03-29T02:18:10;6.50;99.90
25328;DHT22;13279;51.300;12.394;2024-03-29T02:20:37;6.50;99.90
25328;DHT22;13279;51.300;12.394;2024-03-29T02:23:06;6.50;99.90
25328;DHT22;13279;51.300;12.394;2024-03-29T02:25:36;6.50;99.90
25328;DHT22;13279;51.300;12.394;2024-03-29T02:28:05;6.60;99.90
25328;DHT22;13279;51.300;12.394;2024-03-29T02:30:32;6.60;99.90
25328;DHT22;13279;51.300;12.394;2024-03-29T02:33:00;6.60;99.90
25328;DHT22;13279;51.300;12.394;2024-03-29T02:35:29;6.60;99.90
25328;DHT22;13279;51.300;12.394;2024-03-29T02:37:56;6.60;99.90
25328;DHT22;13279;51.300;12.394;2024-03-29T02:40:24;6.70;99.90
25328;DHT22;13279;51.300;12.394;2024-03-29T02:42:53;6.70;99.90
25328;DHT22;13279;51.300;12.394;2024-03-29T02:45:20;6.70;99.90
25328;DHT22;13279;51.300;12.394;2024-03-29T02:47:48;6.70;99.90
25328;DHT22;13279;51.300;12.394;2024-03-29T02:50:16;6.80;99.90
25328;DHT22;13279;51.300;12.394;2024-03-29T02:52:42;6.80;99.90
25328;DHT22;13279;51.300;12.394;2024-03-29T02:55:10;6.80;99.90
25328;DHT22;13279;51.300;12.394;2024-03-29T02:57:36;6.80;99.90
25328;DHT22;13279;51.300;12.394;2024-03-29T03:00:07;6.80;99.90
25328;DHT22;13279;51.300;12.394;2024-03-29T03:02:37;6.70;99.90
25328;DHT22;13279;51.300;12.394;2024-03-29T03:05:06;6.70;99.90
25328;DHT22;13279;51.300;12.394;2024-03-29T03:07:32;6.80;99.90
25328;DHT22;13279;51.300;12.394;2024-03-29T03:10:17;6.70;99.90
25328;DHT22;13279;51.300;12.394;2024-03-29T03:13:01;6.70;99.90
25328;DHT22;13279;51.300;12.394;2024-03-29T03:15:30;6.60;99.90
25328;DHT22;13279;51.300;12.394;2024-03-29T03:18:07;6.60;99.90
25328;DHT22;13279;51.300;12.394;2024-03-29T03:20:37;6.60;99.90
25328;DHT22;13279;51.300;12.394;2024-03-29T03:23:08;6.60;99.90
25328;DHT22;13279;51.300;12.394;2024-03-29T03:25:34;6.60;99.90
25328;DHT22;13279;51.300;12.394;2024-03-29T03:28:01;6.60;99.90
25328;DHT22;13279;51.300;12.394;2024-03-29T03:30:27;6.60;99.90
25328;DHT22;13279;51.300;12.394;2024-03-29T03:32:56;6.60;99.90
25328;DHT22;13279;51.300;12.394;2024-03-29T03:35:22;6.60;99.90
25328;DHT22;13279;51.300;12.394;2024-03-29T03:37:50;6.60;99.90
25328;DHT22;13279;51.300;12.394;2024-03-29T03:40:16;6.60;99.90
25328;DHT22;13279;51.300;12.394;2024-03-29T03:42:43;6.60;99.90
25328;DHT22;13279;51.300;12.394;2024-03-29T03:45:10;6.60;99.90
25328;DHT22;13279;51.300;12.394;2024-03-29T03:47:38;6.60;99.90
25328;DHT22;13279;51.300;12.394;2024-03-29T03:50:06;6.60;99.90
25328;DHT22;13279;51.300;12.394;2024-03-29T03:52:34;6.60;99.90
25328;DHT22;13279;51.300;12.394;2024-03-29T03:55:00;6.60;99.90
25328;DHT22;13279;51.300;12.394;2024-03-29T03:57:27;6.60;99.90
25328;DHT22;13279;51.300;12.394;2024-03-29T03:59:54;6.70;99.90
25328;DHT22;13279;51.300;12.394;2024-03-29T04:02:21;6.70;99.90
25328;DHT22;13279;51.300;12.394;2024-03-29T04:04:47;6.80;99.90
25328;DHT22;13279;51.300;12.394;2024-03-29T04:07:16;6.80;99.90
25328;DHT22;13279;51.300;12.394;2024-03-29T04:09:43;6.80;99.90
25328;DHT22;13279;51.300;12.394;2024-03-29T04:12:10;6.80;99.90
25328;DHT22;13279;51.300;12.394;2024-03-29T04:14:37;6.80;99.90
25328;DHT22;13279;51.300;12.394;2024-03-29T04:17:04;6.90;99.90
25328;DHT22;13279;51.300;12.394;2024-03-29T04:19:32;6.90;99.90
25328;DHT22;13279;51.300;12.394;2024-03-29T04:21:59;7.00;99.90
25328;DHT22;13279;51.300;12.394;2024-03-29T04:24:28;7.00;99.90
25328;DHT22;13279;51.300;12.394;2024-03-29T04:26:55;7.10;99.90
25328;DHT22;13279;51.300;12.394;2024-03-29T04:29:21;7.10;99.90
25328;DHT22;13279;51.300;12.394;2024-03-29T04:31:48;7.10;99.90
25328;DHT22;13279;51.300;12.394;2024-03-29T04:34:15;7.10;99.90
25328;DHT22;13279;51.300;12.394;2024-03-29T04:36:42;7.20;99.90
25328;DHT22;13279;51.300;12.394;2024-03-29T04:39:10;7.20;99.90
25328;DHT22;13279;51.300;12.394;2024-03-29T04:41:38;7.20;99.90
25328;DHT22;13279;51.300;12.394;2024-03-29T04:44:06;7.20;99.90
25328;DHT22;13279;51.300;12.394;2024-03-29T04:46:34;7.20;99.90
25328;DHT22;13279;51.300;12.394;2024-03-29T04:49:01;7.20;99.90
25328;DHT22;13279;51.300;12.394;2024-03-29T04:51:29;7.20;99.90
25328;DHT22;13279;51.300;12.394;2024-03-29T04:53:57;7.30;99.90
25328;DHT22;13279;51.300;12.394;2024-03-29T04:56:24;7.30;99.90
25328;DHT22;13279;51.300;12.394;2024-03-29T04:58:53;7.30;99.90
25328;DHT22;13279;51.300;12.394;2024-03-29T05:01:21;7.30;99.90
25328;DHT22;13279;51.300;12.394;2024-03-29T05:03:48;7.40;99.90
25328;DHT22;13279;51.300;12.394;2024-03-29T05:06:17;7.40;99.90
25328;DHT22;13279;51.300;12.394;2024-03-29T05:08:44;7.50;99.90
25328;DHT22;13279;51.300;12.394;2024-03-29T05:11:12;7.60;99.90
25328;DHT22;13279;51.300;12.394;2024-03-29T05:13:40;7.60;99.90
25328;DHT22;13279;51.300;12.394;2024-03-29T05:16:09;7.70;99.90
25328;DHT22;13279;51.300;12.394;2024-03-29T05:18:37;7.70;99.90
25328;DHT22;13279;51.300;12.394;2024-03-29T05:21:04;7.70;99.90
25328;DHT22;13279;51.300;12.394;2024-03-29T05:23:32;7.80;99.90
25328;DHT22;13279;51.300;12.394;2024-03-29T05:26:00;7.80;99.90
25328;DHT22;13279;51.300;12.394;2024-03-29T05:28:27;7.80;99.90
25328;DHT22;13279;51.300;12.394;2024-03-29T05:30:54;7.80;99.90
25328;DHT22;13279;51.300;12.394;2024-03-29T05:33:23;7.80;99.90
25328;DHT22;13279;51.300;12.394;2024-03-29T05:35:51;7.90;99.90
25328;DHT22;13279;51.300;12.394;2024-03-29T05:38:18;7.90;99.90
25328;DHT22;13279;51.300;12.394;2024-03-29T05:40:46;7.90;99.90
25328;DHT22;13279;51.300;12.394;2024-03-29T05:43:13;8.00;99.90
25328;DHT22;13279;51.300;12.394;2024-03-29T05:45:41;8.00;99.90
25328;DHT22;13279;51.300;12.394;2024-03-29T05:48:08;8.10;99.90
25328;DHT22;13279;51.300;12.394;2024-03-29T05:50:37;8.10;99.90
25328;DHT22;13279;51.300;12.394;2024-03-29T05:53:04;8.20;99.90
25328;DHT22;13279;51.300;12.394;2024-03-29T05:55:32;8.20;99.90
25328;DHT22;13279;51.300;12.394;2024-03-29T05:57:59;8.20;99.90
25328;DHT22;13279;51.300;12.394;2024-03-29T06:00:27;8.30;99.90
25328;DHT22;13279;51.300;12.394;2024-03-29T06:02:55;8.40;99.90
25328;DHT22;13279;51.300;12.394;2024-03-29T06:05:23;8.50;99.90
25328;DHT22;13279;51.300;12.394;2024-03-29T06:07:52;8.60;99.90
25328;DHT22;13279;51.300;12.394;2024-03-29T06:10:20;8.60;99.90
25328;DHT22;13279;51.300;12.394;2024-03-29T06:12:47;8.70;99.90
25328;DHT22;13279;51.300;12.394;2024-03-29T06:15:15;8.70;99.90
25328;DHT22;13279;51.300;12.394;2024-03-29T06:18:00;8.80;99.90
25328;DHT22;13279;51.300;12.394;2024-03-29T06:20:27;8.90;99.90
25328;DHT22;13279;51.300;12.394;2024-03-29T06:22:56;8.90;99.90
25328;DHT22;13279;51.300;12.394;2024-03-29T06:25:23;9.00;99.90
25328;DHT22;13279;51.300;12.394;2024-03-29T06:27:51;9.10;99.90
25328;DHT22;13279;51.300;12.394;2024-03-29T06:30:18;9.10;99.90
25328;DHT22;13279;51.300;12.394;2024-03-29T06:32:45;9.10;99.90
25328;DHT22;13279;51.300;12.394;2024-03-29T06:35:12;9.10;99.90
25328;DHT22;13279;51.300;12.394;2024-03-29T06:37:40;9.10;99.90
25328;DHT22;13279;51.300;12.394;2024-03-29T06:40:10;9.20;99.90
25328;DHT22;13279;51.300;12.394;2024-03-29T06:42:38;9.20;99.90
25328;DHT22;13279;51.300;12.394;2024-03-29T06:45:06;9.30;99.90
25328;DHT22;13279;51.300;12.394;2024-03-29T06:47:34;9.40;99.90
25328;DHT22;13279;51.300;12.394;2024-03-29T06:50:02;9.40;99.90
25328;DHT22;13279;51.300;12.394;2024-03-29T06:52:29;9.50;99.90
25328;DHT22;13279;51.300;12.394;2024-03-29T06:54:57;9.50;99.90
25328;DHT22;13279;51.300;12.394;2024-03-29T06:57:25;9.60;99.90
25328;DHT22;13279;51.300;12.394;2024-03-29T06:59:56;9.70;99.90
25328;DHT22;13279;51.300;12.394;2024-03-29T07:02:24;9.70;99.90
25328;DHT22;13279;51.300;12.394;2024-03-29T07:04:51;9.80;99.90
25328;DHT22;13279;51.300;12.394;2024-03-29T07:07:19;9.80;99.90
25328;DHT22;13279;51.300;12.394;2024-03-29T07:09:46;9.90;99.90
25328;DHT22;13279;51.300;12.394;2024-03-29T07:12:14;9.90;99.90
25328;DHT22;13279;51.300;12.394;2024-03-29T07:14:43;10.00;99.90
25328;DHT22;13279;51.300;12.394;2024-03-29T07:17:10;10.00;99.90
25328;DHT22;13279;51.300;12.394;2024-03-29T07:19:37;10.00;99.90
25328;DHT22;13279;51.300;12.394;2024-03-29T07:22:04;10.00;99.90
25328;DHT22;13279;51.300;12.394;2024-03-29T07:24:32;10.00;99.90
25328;DHT22;13279;51.300;12.394;2024-03-29T07:27:00;10.00;99.90
25328;DHT22;13279;51.300;12.394;2024-03-29T07:29:28;10.00;99.90
25328;DHT22;13279;51.300;12.394;2024-03-29T07:31:57;10.00;99.90
25328;DHT22;13279;51.300;12.394;2024-03-29T07:34:24;10.00;99.90
25328;DHT22;13279;51.300;12.394;2024-03-29T07:36:51;10.10;99.90
25328;DHT22;13279;51.300;12.394;2024-03-29T07:39:19;10.10;99.90
25328;DHT22;13279;51.300;12.394;2024-03-29T07:41:48;10.10;99.90
25328;DHT22;13279;51.300;12.394;2024-03-29T07:44:16;10.20;99.90
25328;DHT22;13279;51.300;12.394;2024-03-29T07:46:43;10.20;99.90
25328;DHT22;13279;51.300;12.394;2024-03-29T07:49:14;10.30;99.90
25328;DHT22;13279;51.300;12.394;2024-03-29T07:51:46;10.30;99.90
25328;DHT22;13279;51.300;12.394;2024-03-29T07:54:14;10.30;99.90
25328;DHT22;13279;51.300;12.394;2024-03-29T07:56:42;10.40;99.90
25328;DHT22;13279;51.300;12.394;2024-03-29T07:59:09;10.40;99.90
25328;DHT22;13279;51.300;12.394;2024-03-29T08:01:36;10.40;99.90
25328;DHT22;13279;51.300;12.394;2024-03-29T08:04:04;10.50;99.90
25328;DHT22;13279;51.300;12.394;2024-03-29T08:06:33;10.50;99.90
25328;DHT22;13279;51.300;12.394;2024-03-29T08:09:00;10.50;99.90
25328;DHT22;13279;51.300;12.394;2024-03-29T08:11:27;10.50;99.90
25328;DHT22;13279;51.300;12.394;2024-03-29T08:13:54;10.50;99.90
25328;DHT22;13279;51.300;12.394;2024-03-29T08:16:22;10.40;99.90
25328;DHT22;13279;51.300;12.394;2024-03-29T08:18:49;10.20;99.90
25328;DHT22;13279;51.300;12.394;2024-03-29T08:21:17;10.20;99.90
25328;DHT22;13279;51.300;12.394;2024-03-29T08:23:45;10.10;99.90
25328;DHT22;13279;51.300;12.394;2024-03-29T08:26:14;10.10;99.90
25328;DHT22;13279;51.300;12.394;2024-03-29T08:28:45;10.00;99.90
25328;DHT22;13279;51.300;12.394;2024-03-29T08:31:12;10.10;99.90
25328;DHT22;13279;51.300;12.394;2024-03-29T08:33:40;10.10;99.90
25328;DHT22;13279;51.300;12.394;2024-03-29T08:36:09;10.10;99.90
25328;DHT22;13279;51.300;12.394;2024-03-29T08:38:37;10.10;99.90
25328;DHT22;13279;51.300;12.394;2024-03-29T08:41:10;10.00;99.90
25328;DHT22;13279;51.300;12.394;2024-03-29T08:43:37;9.90;99.90
25328;DHT22;13279;51.300;12.394;2024-03-29T08:46:05;9.90;99.90
25328;DHT22;13279;51.300;12.394;2024-03-29T08:48:35;9.90;99.90
25328;DHT22;13279;51.300;12.394;2024-03-29T08:51:06;9.80;99.90
25328;DHT22;13279;51.300;12.394;2024-03-29T08:53:33;9.80;99.90
25328;DHT22;13279;51.300;12.394;2024-03-29T08:56:01;9.80;99.90
25328;DHT22;13279;51.300;12.394;2024-03-29T08:58:30;9.80;99.90
25328;DHT22;13279;51.300;12.394;2024-03-29T09:00:57;9.80;99.90
25328;DHT22;13279;51.300;12.394;2024-03-29T09:03:24;9.80;99.90
25328;DHT22;13279;51.300;12.394;2024-03-29T09:05:52;9.70;99.90
25328;DHT22;13279;51.300;12.394;2024-03-29T09:08:19;9.80;99.90
25328;DHT22;13279;51.300;12.394;2024-03-29T09:10:46;9.80;99.90
25328;DHT22;13279;51.300;12.394;2024-03-29T09:13:14;9.80;99.90
25328;DHT22;13279;51.300;12.394;2024-03-29T09:15:43;9.80;99.90
25328;DHT22;13279;51.300;12.394;2024-03-29T09:18:10;9.90;99.90
25328;DHT22;13279;51.300;12.394;2024-03-29T09:20:43;10.00;99.90
25328;DHT22;13279;51.300;12.394;2024-03-29T09:23:11;10.00;99.90
25328;DHT22;13279;51.300;12.394;2024-03-29T09:25:42;10.10;99.90
25328;DHT22;13279;51.300;12.394;2024-03-29T09:28:09;10.20;99.90
25328;DHT22;13279;51.300;12.394;2024-03-29T09:30:37;10.30;99.90
25328;DHT22;13279;51.300;12.394;2024-03-29T09:33:06;10.40;99.90
25328;DHT22;13279;51.300;12.394;2024-03-29T09:35:35;10.50;99.90
25328;DHT22;13279;51.300;12.394;2024-03-29T09:38:03;10.50;99.90
25328;DHT22;13279;51.300;12.394;2024-03-29T09:40:30;10.50;99.90
25328;DHT22;13279;51.300;12.394;2024-03-29T09:43:00;10.60;99.90
25328;DHT22;13279;51.300;12.394;2024-03-29T09:45:31;10.70;99.90
25328;DHT22;13279;51.300;12.394;2024-03-29T09:48:01;10.80;99.90
25328;DHT22;13279;51.300;12.394;2024-03-29T09:50:31;10.80;99.90
25328;DHT22;13279;51.300;12.394;2024-03-29T09:52:59;10.90;99.90
25328;DHT22;13279;51.300;12.394;2024-03-29T09:55:27;10.90;99.90
25328;DHT22;13279;51.300;12.394;2024-03-29T09:57:55;11.00;99.90
25328;DHT22;13279;51.300;12.394;2024-03-29T10:00:23;11.00;99.90
25328;DHT22;13279;51.300;12.394;2024-03-29T10:02:53;11.10;99.90
25328;DHT22;13279;51.300;12.394;2024-03-29T10:05:22;11.20;99.90
25328;DHT22;13279;51.300;12.394;2024-03-29T10:07:53;11.30;99.90
25328;DHT22;13279;51.300;12.394;2024-03-29T10:10:22;11.30;99.90
25328;DHT22;13279;51.300;12.394;2024-03-29T10:12:49;11.40;99.90
25328;DHT22;13279;51.300;12.394;2024-03-29T10:15:16;11.60;99.90
25328;DHT22;13279;51.300;12.394;2024-03-29T10:17:47;11.60;99.90
25328;DHT22;13279;51.300;12.394;2024-03-29T10:20:16;11.70;99.90
25328;DHT22;13279;51.300;12.394;2024-03-29T10:22:44;11.90;99.90
25328;DHT22;13279;51.300;12.394;2024-03-29T10:25:14;12.00;99.90
25328;DHT22;13279;51.300;12.394;2024-03-29T10:27:42;12.00;99.90
25328;DHT22;13279;51.300;12.394;2024-03-29T10:30:11;12.10;99.90
25328;DHT22;13279;51.300;12.394;2024-03-29T10:32:43;12.20;99.90
25328;DHT22;13279;51.300;12.394;2024-03-29T10:35:10;12.20;99.90
25328;DHT22;13279;51.300;12.394;2024-03-29T10:37:38;12.30;99.90
25328;DHT22;13279;51.300;12.394;2024-03-29T10:40:07;12.30;99.90
25328;DHT22;13279;51.300;12.394;2024-03-29T10:42:37;12.20;99.90
25328;DHT22;13279;51.300;12.394;2024-03-29T10:45:06;12.20;99.90
25328;DHT22;13279;51.300;12.394;2024-03-29T10:47:34;12.30;99.90
25328;DHT22;13279;51.300;12.394;2024-03-29T10:50:02;12.20;99.90
25328;DHT22;13279;51.300;12.394;2024-03-29T10:52:31;12.20;99.90
25328;DHT22;13279;51.300;12.394;2024-03-29T10:54:59;12.20;99.90
25328;DHT22;13279;51.300;12.394;2024-03-29T10:57:27;12.30;99.90
25328;DHT22;13279;51.300;12.394;2024-03-29T11:00:02;12.40;99.90
25328;DHT22;13279;51.300;12.394;2024-03-29T11:02:39;12.50;99.90
25328;DHT22;13279;51.300;12.394;2024-03-29T11:05:12;12.50;99.90
25328;DHT22;13279;51.300;12.394;2024-03-29T11:07:42;12.60;99.90
25328;DHT22;13279;51.300;12.394;2024-03-29T11:10:17;12.70;99.90
25328;DHT22;13279;51.300;12.394;2024-03-29T11:12:50;12.70;99.90
25328;DHT22;13279;51.300;12.394;2024-03-29T11:15:29;12.80;99.90
25328;DHT22;13279;51.300;12.394;2024-03-29T11:17:57;12.90;99.90
25328;DHT22;13279;51.300;12.394;2024-03-29T11:20:26;12.90;99.90
25328;DHT22;13279;51.300;12.394;2024-03-29T11:23:03;13.00;99.90
25328;DHT22;13279;51.300;12.394;2024-03-29T11:25:42;13.00;99.90
25328;DHT22;13279;51.300;12.394;2024-03-29T11:28:12;13.00;99.90
25328;DHT22;13279;51.300;12.394;2024-03-29T11:30:45;13.10;99.90
25328;DHT22;13279;51.300;12.394;2024-03-29T11:33:30;13.10;99.90
25328;DHT22;13279;51.300;12.394;2024-03-29T11:35:59;13.20;99.90
25328;DHT22;13279;51.300;12.394;2024-03-29T11:38:34;13.30;99.90
25328;DHT22;13279;51.300;12.394;2024-03-29T11:41:03;13.40;99.90
25328;DHT22;13279;51.300;12.394;2024-03-29T11:43:31;13.40;99.90
25328;DHT22;13279;51.300;12.394;2024-03-29T11:46:00;13.50;99.90
25328;DHT22;13279;51.300;12.394;2024-03-29T11:48:30;13.60;99.90
25328;DHT22;13279;51.300;12.394;2024-03-29T11:50:58;13.60;99.90
25328;DHT22;13279;51.300;12.394;2024-03-29T11:53:26;13.70;99.90
25328;DHT22;13279;51.300;12.394;2024-03-29T11:55:55;13.70;99.90
25328;DHT22;13279;51.300;12.394;2024-03-29T11:58:23;13.80;99.90
25328;DHT22;13279;51.300;12.394;2024-03-29T12:00:50;13.90;99.90
25328;DHT22;13279;51.300;12.394;2024-03-29T12:03:20;14.00;99.90
25328;DHT22;13279;51.300;12.394;2024-03-29T12:05:50;14.00;99.90
25328;DHT22;13279;51.300;12.394;2024-03-29T12:08:18;14.10;99.90
25328;DHT22;13279;51.300;12.394;2024-03-29T12:10:45;14.20;99.90
25328;DHT22;13279;51.300;12.394;2024-03-29T12:13:16;14.30;99.90
25328;DHT22;13279;51.300;12.394;2024-03-29T12:15:44;14.30;99.90
25328;DHT22;13279;51.300;12.394;2024-03-29T12:18:11;14.40;99.90
25328;DHT22;13279;51.300;12.394;2024-03-29T12:20:43;14.40;99.90
25328;DHT22;13279;51.300;12.394;2024-03-29T12:23:16;14.40;99.90
25328;DHT22;13279;51.300;12.394;2024-03-29T12:25:44;14.40;99.90
25328;DHT22;13279;51.300;12.394;2024-03-29T12:28:13;14.40;99.90
25328;DHT22;13279;51.300;12.394;2024-03-29T12:30:43;14.50;99.90
25328;DHT22;13279;51.300;12.394;2024-03-29T12:33:12;14.50;99.90
25328;DHT22;13279;51.300;12.394;2024-03-29T12:35:43;14.60;99.90
25328;DHT22;13279;51.300;12.394;2024-03-29T12:38:11;14.60;99.90
25328;DHT22;13279;51.300;12.394;2024-03-29T12:40:41;14.60;99.90
25328;DHT22;13279;51.300;12.394;2024-03-29T12:43:10;14.50;99.90
25328;DHT22;13279;51.300;12.394;2024-03-29T12:45:39;14.60;99.90
25328;DHT22;13279;51.300;12.394;2024-03-29T12:48:11;14.70;99.90
25328;DHT22;13279;51.300;12.394;2024-03-29T12:50:41;15.00;99.90
25328;DHT22;13279;51.300;12.394;2024-03-29T12:53:12;15.10;99.90
25328;DHT22;13279;51.300;12.394;2024-03-29T12:55:41;14.90;99.90
25328;DHT22;13279;51.300;12.394;2024-03-29T12:58:12;14.80;99.90
25328;DHT22;13279;51.300;12.394;2024-03-29T13:00:40;14.80;99.90
25328;DHT22;13279;51.300;12.394;2024-03-29T13:03:08;15.10;99.90
25328;DHT22;13279;51.300;12.394;2024-03-29T13:05:36;15.30;99.90
25328;DHT22;13279;51.300;12.394;2024-03-29T13:08:07;15.20;99.90
25328;DHT22;13279;51.300;12.394;2024-03-29T13:10:38;15.00;99.90
25328;DHT22;13279;51.300;12.394;2024-03-29T13:13:05;15.00;99.90
25328;DHT22;13279;51.300;12.394;2024-03-29T13:15:34;14.80;99.90
25328;DHT22;13279;51.300;12.394;2024-03-29T13:18:02;14.60;99.90
25328;DHT22;13279;51.300;12.394;2024-03-29T13:20:31;14.60;99.90
25328;DHT22;13279;51.300;12.394;2024-03-29T13:22:59;14.60;99.90
25328;DHT22;13279;51.300;12.394;2024-03-29T13:25:26;14.50;99.90
25328;DHT22;13279;51.300;12.394;2024-03-29T13:27:55;14.50;99.90
25328;DHT22;13279;51.300;12.394;2024-03-29T13:30:24;14.40;99.90
25328;DHT22;13279;51.300;12.394;2024-03-29T13:32:52;14.30;99.90
25328;DHT22;13279;51.300;12.394;2024-03-29T13:35:20;14.30;99.90
25328;DHT22;13279;51.300;12.394;2024-03-29T13:37:48;14.20;99.90
25328;DHT22;13279;51.300;12.394;2024-03-29T13:40:17;14.30;99.90
25328;DHT22;13279;51.300;12.394;2024-03-29T13:42:44;14.30;99.90
25328;DHT22;13279;51.300;12.394;2024-03-29T13:45:13;14.80;99.90
25328;DHT22;13279;51.300;12.394;2024-03-29T13:47:41;15.20;99.90
25328;DHT22;13279;51.300;12.394;2024-03-29T13:50:09;15.40;99.90
25328;DHT22;13279;51.300;12.394;2024-03-29T13:52:37;15.40;99.90
25328;DHT22;13279;51.300;12.394;2024-03-29T13:55:05;15.20;99.90
25328;DHT22;13279;51.300;12.394;2024-03-29T13:57:33;15.00;99.90
25328;DHT22;13279;51.300;12.394;2024-03-29T14:00:00;15.00;99.90
25328;DHT22;13279;51.300;12.394;2024-03-29T14:02:29;15.00;99.90
25328;DHT22;13279;51.300;12.394;2024-03-29T14:04:57;15.10;99.90
25328;DHT22;13279;51.300;12.394;2024-03-29T14:07:24;15.00;99.90
25328;DHT22;13279;51.300;12.394;2024-03-29T14:09:52;15.20;99.90
25328;DHT22;13279;51.300;12.394;2024-03-29T14:12:20;15.20;99.90
25328;DHT22;13279;51.300;12.394;2024-03-29T14:14:47;15.20;99.90
25328;DHT22;13279;51.300;12.394;2024-03-29T14:17:16;15.10;99.90
25328;DHT22;13279;51.300;12.394;2024-03-29T14:19:47;15.00;99.90
25328;DHT22;13279;51.300;12.394;2024-03-29T14:22:14;14.90;99.90
25328;DHT22;13279;51.300;12.394;2024-03-29T14:24:45;14.90;99.90
25328;DHT22;13279;51.300;12.394;2024-03-29T14:27:12;14.90;99.90
25328;DHT22;13279;51.300;12.394;2024-03-29T14:29:40;14.90;99.90
25328;DHT22;13279;51.300;12.394;2024-03-29T14:32:11;14.90;99.90
25328;DHT22;13279;51.300;12.394;2024-03-29T14:34:38;14.90;99.90
25328;DHT22;13279;51.300;12.394;2024-03-29T14:37:12;14.90;99.90
25328;DHT22;13279;51.300;12.394;2024-03-29T14:39:42;14.80;99.90
25328;DHT22;13279;51.300;12.394;2024-03-29T14:42:10;14.80;99.90
25328;DHT22;13279;51.300;12.394;2024-03-29T14:44:41;14.70;99.90
25328;DHT22;13279;51.300;12.394;2024-03-29T14:47:08;14.70;99.90
25328;DHT22;13279;51.300;12.394;2024-03-29T14:49:35;14.70;99.90
25328;DHT22;13279;51.300;12.394;2024-03-29T14:52:03;14.60;99.90
25328;DHT22;13279;51.300;12.394;2024-03-29T14:54:32;14.70;99.90
25328;DHT22;13279;51.300;12.394;2024-03-29T14:56:59;14.60;99.90
25328;DHT22;13279;51.300;12.394;2024-03-29T14:59:28;14.50;99.90
25328;DHT22;13279;51.300;12.394;2024-03-29T15:01:56;14.50;99.90
25328;DHT22;13279;51.300;12.394;2024-03-29T15:04:24;14.50;99.90
25328;DHT22;13279;51.300;12.394;2024-03-29T15:06:51;14.50;99.90
25328;DHT22;13279;51.300;12.394;2024-03-29T15:09:19;14.50;99.90
25328;DHT22;13279;51.300;12.394;2024-03-29T15:11:48;14.50;99.90
25328;DHT22;13279;51.300;12.394;2024-03-29T15:14:16;14.60;99.90
25328;DHT22;13279;51.300;12.394;2024-03-29T15:16:43;14.50;99.90
25328;DHT22;13279;51.300;12.394;2024-03-29T15:19:10;14.50;99.90
25328;DHT22;13279;51.300;12.394;2024-03-29T15:21:38;14.40;99.90
25328;DHT22;13279;51.300;12.394;2024-03-29T15:24:06;14.50;99.90
25328;DHT22;13279;51.300;12.394;2024-03-29T15:26:34;14.50;99.90
25328;DHT22;13279;51.300;12.394;2024-03-29T15:29:04;14.60;99.90